Time;durP1;ratioP1;P1;durP2;ratioP2;P2;SDS_P1;SDS_P2;PMS_P1;PMS_P2;Temp;Humidity;BMP_temperature;BMP_pressure;BME280_temperature;BME280_humidity;BME280_pressure;Samples;Min_cycle;Max_cycle;Signal;HPM_P1;HPM_P2
2023/02/13 00:02:22;;;;;;;10.03;4.40;;;;;;;8.12;100.00;103215.13;5015411;28;20447;-68
2023/02/13 00:04:48;;;;;;;11.50;3.80;;;;;;;8.15;100.00;103214.72;5015020;28;20559;-68
2023/02/13 00:07:15;;;;;;;13.40;4.43;;;;;;;8.11;100.00;103221.59;5015326;28;20831;-67
2023/02/13 00:09:41;;;;;;;16.73;4.33;;;;;;;8.11;100.00;103223.47;5015050;28;20452;-68
2023/02/13 00:12:10;;;;;;;14.10;4.67;;;;;;;8.12;100.00;103223.25;5015016;28;20822;-67
2023/02/13 00:14:37;;;;;;;11.77;3.20;;;;;;;8.08;100.00;103216.63;5014886;28;20457;-68
2023/02/13 00:17:05;;;;;;;9.80;3.53;;;;;;;8.05;100.00;103228.66;5015209;28;20531;-68
2023/02/13 00:19:31;;;;;;;12.47;4.40;;;;;;;8.05;100.00;103223.28;5015125;28;20532;-68
2023/02/13 00:21:58;;;;;;;9.03;2.87;;;;;;;8.07;100.00;103220.38;5014786;28;20475;-67
2023/02/13 00:24:25;;;;;;;18.17;3.10;;;;;;;8.07;100.00;103221.19;5014683;28;20838;-68
2023/02/13 00:26:52;;;;;;;6.97;2.07;;;;;;;8.03;100.00;103219.97;5014654;28;21164;-68
2023/02/13 00:29:20;;;;;;;7.40;2.13;;;;;;;8.03;100.00;103219.16;5014948;28;20534;-67
2023/02/13 00:31:46;;;;;;;7.13;1.97;;;;;;;7.97;100.00;103218.16;5014603;28;20448;-67
2023/02/13 00:34:13;;;;;;;6.53;1.43;;;;;;;7.98;100.00;103217.13;5014855;28;20550;-67
2023/02/13 00:36:39;;;;;;;6.20;1.70;;;;;;;7.92;100.00;103215.25;5014876;28;20447;-67
2023/02/13 00:39:06;;;;;;;6.40;1.53;;;;;;;7.93;100.00;103208.03;5014395;28;20824;-67
2023/02/13 00:41:33;;;;;;;6.20;1.43;;;;;;;7.92;100.00;103212.56;5014751;28;20444;-67
2023/02/13 00:43:59;;;;;;;9.60;2.10;;;;;;;7.93;100.00;103208.03;5014612;28;20468;-67
2023/02/13 00:46:27;;;;;;;6.23;1.70;;;;;;;7.94;100.00;103209.66;5014598;28;20484;-68
2023/02/13 00:48:54;;;;;;;10.70;2.13;;;;;;;7.93;100.00;103202.63;5014365;28;20944;-68
2023/02/13 00:51:20;;;;;;;7.57;1.83;;;;;;;7.95;100.00;103205.91;5014586;28;20462;-67
2023/02/13 00:53:47;;;;;;;6.03;1.63;;;;;;;7.91;100.00;103200.13;5014112;28;20978;-67
2023/02/13 00:56:13;;;;;;;6.13;1.33;;;;;;;7.93;100.00;103203.44;5013487;28;20897;-67
2023/02/13 00:58:40;;;;;;;4.80;0.83;;;;;;;7.95;100.00;103205.91;5014431;28;20481;-67
2023/02/13 01:01:07;;;;;;;6.57;1.80;;;;;;;7.96;100.00;103211.09;5014401;28;20523;-68
2023/02/13 01:03:35;;;;;;;6.77;2.17;;;;;;;7.96;100.00;103210.25;5013843;28;20860;-68
2023/02/13 01:06:01;;;;;;;6.20;1.73;;;;;;;7.96;100.00;103212.97;5013975;28;20464;-68
2023/02/13 01:08:28;;;;;;;7.13;2.00;;;;;;;7.96;100.00;103211.09;5014129;28;20933;-67
2023/02/13 01:10:55;;;;;;;4.80;1.00;;;;;;;7.97;100.00;103214.59;5014112;28;20495;-67
2023/02/13 01:13:22;;;;;;;6.73;1.43;;;;;;;7.97;100.00;103211.91;5014107;28;20440;-67
2023/02/13 01:15:49;;;;;;;5.67;1.50;;;;;;;7.90;100.00;103208.44;5013824;28;20448;-67
2023/02/13 01:18:16;;;;;;;10.53;2.20;;;;;;;7.88;100.00;103213.22;5014084;28;20540;-67
2023/02/13 01:20:45;;;;;;;6.90;1.13;;;;;;;7.81;100.00;103206.00;5014048;28;20444;-68
2023/02/13 01:23:13;;;;;;;5.67;1.33;;;;;;;7.75;100.00;103214.97;5013988;28;20450;-67
2023/02/13 01:25:41;;;;;;;5.73;1.40;;;;;;;7.78;100.00;103211.84;5013684;28;20498;-67
2023/02/13 01:28:07;;;;;;;6.70;1.60;;;;;;;7.82;100.00;103210.34;5013601;28;20997;-68
2023/02/13 01:30:34;;;;;;;6.43;1.53;;;;;;;7.80;100.00;103212.47;5013960;28;20463;-68
2023/02/13 01:33:01;;;;;;;5.90;1.60;;;;;;;7.78;100.00;103214.53;5014039;28;20535;-68
2023/02/13 01:35:27;;;;;;;6.10;1.20;;;;;;;7.77;100.00;103210.19;5013587;28;20479;-67
2023/02/13 01:37:55;;;;;;;5.37;1.00;;;;;;;7.75;100.00;103211.47;5013894;28;20459;-66
2023/02/13 01:40:22;;;;;;;6.03;1.07;;;;;;;7.76;100.00;103213.09;5013765;28;20455;-67
2023/02/13 01:42:49;;;;;;;5.90;1.33;;;;;;;7.77;100.00;103203.97;5013770;28;20475;-68
2023/02/13 01:45:23;;;;;;;7.33;1.57;;;;;;;7.77;100.00;103203.97;5013608;28;20470;-67
2023/02/13 01:47:52;;;;;;;4.93;1.20;;;;;;;7.77;100.00;103204.78;5013680;28;20474;-67
2023/02/13 01:50:24;;;;;;;5.20;1.20;;;;;;;7.77;100.00;103199.38;5013403;28;20519;-67
2023/02/13 01:52:55;;;;;;;5.97;1.53;;;;;;;7.78;100.00;103202.91;5013345;28;20433;-67
2023/02/13 01:55:25;;;;;;;5.93;1.60;;;;;;;7.75;100.00;103206.88;5013684;28;20474;-67
2023/02/13 01:57:56;;;;;;;6.63;1.63;;;;;;;7.75;100.00;103203.38;5013279;28;20446;-67
2023/02/13 02:00:23;;;;;;;7.10;1.60;;;;;;;7.74;100.00;103204.38;5013307;28;20547;-68
2023/02/13 02:02:53;;;;;;;6.23;1.67;;;;;;;7.74;100.00;103207.91;5013229;28;20535;-68
2023/02/13 02:05:30;;;;;;;7.17;1.73;;;;;;;7.74;100.00;103204.38;5013073;28;20486;-67
2023/02/13 02:07:59;;;;;;;11.10;1.97;;;;;;;7.75;100.00;103206.06;5015417;28;20471;-68
2023/02/13 02:10:28;;;;;;;6.90;1.60;;;;;;;7.73;100.00;103203.56;5020224;28;20443;-68
2023/02/13 02:13:00;;;;;;;9.20;2.10;;;;;;;7.74;100.00;103205.22;5019975;28;20442;-68
2023/02/13 02:15:27;;;;;;;8.23;2.47;;;;;;;7.73;100.00;103208.13;5019922;28;20492;-68
2023/02/13 02:17:53;;;;;;;6.80;2.00;;;;;;;7.73;100.00;103206.25;5019729;28;20940;-68
2023/02/13 02:20:33;;;;;;;9.73;2.60;;;;;;;7.71;100.00;103197.56;5019988;28;20448;-67
2023/02/13 02:23:29;;;;;;;7.50;2.13;;;;;;;7.69;100.00;103206.91;5019906;28;20807;-67
2023/02/13 02:26:41;;;;;;;8.50;2.33;;;;;;;7.67;100.00;103200.94;5019998;28;20434;-67
2023/02/13 02:29:48;;;;;;;6.73;1.70;;;;;;;7.66;100.00;103208.19;4994524;28;20945;-67
2023/02/13 02:32:43;;;;;;;6.33;1.70;;;;;;;7.66;100.00;103210.91;5019834;28;20471;-67
2023/02/13 02:35:21;;;;;;;6.93;2.37;;;;;;;7.70;100.00;103212.13;5017086;28;20467;-67
2023/02/13 02:38:01;;;;;;;8.50;2.50;;;;;;;7.71;100.00;103208.38;5019740;28;20434;-67
2023/02/13 02:40:37;;;;;;;8.40;2.47;;;;;;;7.73;100.00;103216.22;5019824;28;20832;-67
2023/02/13 02:43:17;;;;;;;8.70;2.50;;;;;;;7.70;100.00;103206.72;5019484;28;20917;-67
2023/02/13 02:45:53;;;;;;;7.57;2.63;;;;;;;7.66;100.00;103213.59;5019848;28;20790;-67
2023/02/13 02:51:21;;;;;;;10.03;2.97;;;;;;;7.64;100.00;103209.44;5019566;28;20415;-67
2023/02/13 02:53:57;;;;;;;11.57;3.87;;;;;;;7.65;100.00;103209.22;5019511;28;20546;-67
2023/02/13 02:56:29;;;;;;;7.30;2.50;;;;;;;7.66;100.00;103207.34;5019589;28;20439;-67
2023/02/13 03:07:21;;;;;;;13.20;3.47;;;;;;;7.61;100.00;103209.88;5019420;28;20542;-67
2023/02/13 03:15:25;;;;;;;16.73;4.43;;;;;;;7.62;100.00;103219.63;5019240;28;20439;-67
2023/02/13 03:23:48;;;;;;;8.87;3.70;;;;;;;7.62;100.00;103214.25;4969541;28;20937;-67
2023/02/13 03:26:44;;;;;;;14.00;4.93;;;;;;;7.61;100.00;103208.00;5015905;28;20424;-67
2023/02/13 03:32:10;;;;;;;14.17;5.20;;;;;;;7.62;100.00;103215.06;5015972;28;20423;-67
2023/02/13 03:40:21;;;;;;;9.30;3.50;;;;;;;7.64;100.00;103209.44;5015828;28;20929;-67
2023/02/13 03:42:54;;;;;;;16.00;5.20;;;;;;;7.60;100.00;103209.03;5015891;28;20431;-67
2023/02/13 03:50:04;;;;;;;15.73;4.67;;;;;;;7.52;100.00;103206.59;5015583;28;20555;-67
2023/02/13 03:51:02;;;;;;;10.10;4.10;;;;;;;7.49;100.00;103207.03;5015292;28;20440;-67
2023/02/13 03:53:34;;;;;;;12.60;4.50;;;;;;;7.50;100.00;103208.69;5015378;28;20444;-67
2023/02/13 04:01:37;;;;;;;15.83;5.33;;;;;;;7.53;100.00;103198.31;5015376;28;20412;-67
2023/02/13 04:04:10;;;;;;;15.57;5.83;;;;;;;7.53;100.00;103192.09;5015143;28;20483;-67
2023/02/13 04:06:42;;;;;;;12.00;4.77;;;;;;;7.53;100.00;103194.78;5015165;28;20475;-68
2023/02/13 04:09:10;;;;;;;11.70;4.87;;;;;;;7.48;100.00;103194.56;5015341;28;20491;-68
2023/02/13 04:11:42;;;;;;;12.40;4.53;;;;;;;7.50;100.00;103187.13;5015330;28;20476;-68
2023/02/13 04:14:13;;;;;;;13.80;4.70;;;;;;;7.52;100.00;103193.09;5015186;28;20468;-68
2023/02/13 04:16:43;;;;;;;15.23;6.10;;;;;;;7.51;100.00;103184.19;5014916;28;20428;-70
2023/02/13 04:19:11;;;;;;;12.47;5.47;;;;;;;7.43;100.00;103187.13;5014896;28;20443;-68
2023/02/13 04:21:40;;;;;;;15.03;4.83;;;;;;;7.47;100.00;103182.97;5015145;28;20440;-69
2023/02/13 04:24:07;;;;;;;13.33;5.10;;;;;;;7.46;100.00;103188.59;5015093;28;20510;-68
2023/02/13 04:26:38;;;;;;;15.87;5.50;;;;;;;7.47;100.00;103192.94;5015125;28;20440;-68
2023/02/13 04:29:05;;;;;;;16.87;5.83;;;;;;;7.48;100.00;103194.56;5014699;28;20467;-67
2023/02/13 04:31:32;;;;;;;13.97;5.13;;;;;;;7.46;100.00;103191.28;5013859;28;20440;-67
2023/02/13 04:33:58;;;;;;;18.63;5.20;;;;;;;7.49;100.00;103191.69;5014894;28;20496;-68
2023/02/13 04:36:26;;;;;;;13.17;4.30;;;;;;;7.47;100.00;103190.22;5014963;28;20523;-68
2023/02/13 04:38:52;;;;;;;12.50;5.03;;;;;;;7.51;100.00;103184.19;5014728;28;20440;-68
2023/02/13 04:41:19;;;;;;;12.00;5.03;;;;;;;7.51;100.00;103180.66;5015484;28;20879;-67
2023/02/13 04:43:47;;;;;;;22.53;5.07;;;;;;;7.51;100.00;103176.09;5014649;28;20471;-68
2023/02/13 04:46:14;;;;;;;15.00;4.60;;;;;;;7.47;100.00;103187.53;5015251;28;20475;-64
2023/02/13 04:48:41;;;;;;;14.50;4.43;;;;;;;7.47;100.00;103176.75;5014267;28;21031;-64
2023/02/13 04:51:07;;;;;;;16.60;5.70;;;;;;;7.50;100.00;103174.44;5014607;28;20444;-64
2023/02/13 04:53:34;;;;;;;18.33;5.20;;;;;;;7.50;100.00;103176.31;5014166;28;21124;-64
2023/02/13 04:56:00;;;;;;;15.20;5.20;;;;;;;7.47;100.00;103179.44;5014541;28;20448;-65
2023/02/13 04:58:27;;;;;;;12.90;4.00;;;;;;;7.49;100.00;103180.06;5014169;28;20938;-65
2023/02/13 05:00:55;;;;;;;12.17;4.50;;;;;;;7.50;100.00;103181.72;5014369;28;20823;-64
2023/02/13 05:03:22;;;;;;;12.20;3.60;;;;;;;7.46;100.00;103180.50;5014208;28;20448;-65
2023/02/13 05:05:49;;;;;;;15.70;4.73;;;;;;;7.41;100.00;103177.63;5015442;28;20499;-68
2023/02/13 05:08:15;;;;;;;12.30;5.07;;;;;;;7.39;100.00;103180.50;5014267;28;20488;-68
2023/02/13 05:10:42;;;;;;;11.70;4.43;;;;;;;7.36;100.00;103185.53;5014036;28;20451;-68
2023/02/13 05:13:08;;;;;;;14.80;4.40;;;;;;;7.36;100.00;103189.06;5015096;28;20450;-68
2023/02/13 05:15:35;;;;;;;13.90;5.27;;;;;;;7.34;100.00;103183.84;5013959;28;20458;-68
2023/02/13 05:18:03;;;;;;;14.00;5.10;;;;;;;7.37;100.00;103181.78;5013844;28;20821;-68
2023/02/13 05:20:29;;;;;;;17.33;6.00;;;;;;;7.31;100.00;103183.50;5013826;28;20444;-67
2023/02/13 05:25:41;;;;;;;15.23;4.93;;;;;;;7.28;100.00;103190.13;5013939;28;20535;-68
2023/02/13 05:29:17;;;;;;;13.10;4.43;;;;;;;7.29;100.00;103183.69;5013898;28;20480;-69
2023/02/13 05:30:55;;;;;;;12.60;5.00;;;;;;;7.26;100.00;103180.59;5013518;28;20433;-69
2023/02/13 05:33:23;;;;;;;12.80;4.83;;;;;;;7.23;100.00;103181.03;5013839;28;20440;-69
2023/02/13 05:35:49;;;;;;;11.20;4.60;;;;;;;7.19;100.00;103175.22;5013526;28;20534;-68
2023/02/13 05:38:16;;;;;;;13.13;5.10;;;;;;;7.20;100.00;103181.44;5013878;28;20598;-69
2023/02/13 05:40:43;;;;;;;11.70;3.60;;;;;;;7.20;100.00;103179.56;5013776;28;20440;-68
2023/02/13 05:43:09;;;;;;;11.40;4.03;;;;;;;7.20;100.00;103184.16;5013471;28;20444;-69
2023/02/13 05:45:36;;;;;;;14.33;5.07;;;;;;;7.21;100.00;103189.31;5013821;28;20966;-68
2023/02/13 05:48:03;;;;;;;10.43;3.77;;;;;;;7.20;100.00;103176.06;5013670;28;20483;-68
2023/02/13 05:50:30;;;;;;;11.30;3.93;;;;;;;7.19;100.00;103177.94;5013734;28;20448;-68
2023/02/13 05:52:57;;;;;;;11.67;4.23;;;;;;;7.13;100.00;103186.88;5013653;28;20543;-68
2023/02/13 05:55:24;;;;;;;10.07;3.83;;;;;;;7.10;100.00;103179.22;5013739;28;20464;-68
2023/02/13 05:57:50;;;;;;;10.53;4.50;;;;;;;7.15;100.00;103189.34;5013275;28;20452;-69
2023/02/13 06:00:18;;;;;;;9.60;3.70;;;;;;;7.16;100.00;103196.38;5013550;28;20534;-69
2023/02/13 06:02:44;;;;;;;10.23;3.93;;;;;;;7.18;100.00;103197.03;5013466;28;20494;-68
2023/02/13 06:05:11;;;;;;;14.03;3.83;;;;;;;7.21;100.00;103200.09;5013012;28;20476;-68
2023/02/13 06:07:39;;;;;;;11.50;3.90;;;;;;;7.25;100.00;103192.41;5013055;28;20443;-68
2023/02/13 06:10:07;;;;;;;10.63;3.97;;;;;;;7.27;100.00;103204.66;5013473;28;20535;-68
2023/02/13 06:12:33;;;;;;;10.57;4.10;;;;;;;7.26;100.00;103213.78;5013437;28;20479;-68
2023/02/13 06:15:00;;;;;;;12.77;4.13;;;;;;;7.28;100.00;103209.00;5013283;28;20482;-68
2023/02/13 06:17:26;;;;;;;10.83;3.90;;;;;;;7.27;100.00;103210.03;5013040;28;20527;-68
2023/02/13 06:19:53;;;;;;;10.93;3.43;;;;;;;7.30;100.00;103215.00;5013389;28;20822;-66
2023/02/13 06:22:19;;;;;;;11.93;3.47;;;;;;;7.27;100.00;103215.44;5013763;28;20444;-68
2023/02/13 06:24:47;;;;;;;9.43;3.60;;;;;;;7.28;100.00;103203.59;5012988;28;20981;-67
2023/02/13 06:27:14;;;;;;;13.23;4.00;;;;;;;7.25;100.00;103208.59;5013324;28;20498;-68
2023/02/13 06:29:41;;;;;;;12.93;4.37;;;;;;;7.18;100.00;103214.00;5013125;28;20582;-66
2023/02/13 06:32:07;;;;;;;16.33;4.37;;;;;;;7.18;100.00;103211.31;5013400;28;20450;-68
2023/02/13 06:34:34;;;;;;;14.50;4.43;;;;;;;7.16;100.00;103208.00;5012915;28;20470;-68
2023/02/13 06:37:00;;;;;;;9.00;3.60;;;;;;;7.13;100.00;103208.44;5013219;28;20479;-68
2023/02/13 06:39:27;;;;;;;11.83;3.97;;;;;;;7.14;100.00;103210.09;5013181;28;20440;-68
2023/02/13 06:41:55;;;;;;;10.53;3.73;;;;;;;7.10;100.00;103210.72;5012875;28;20531;-67
2023/02/13 06:44:21;;;;;;;13.10;3.87;;;;;;;7.09;100.00;103215.28;5013086;28;20460;-67
2023/02/13 06:46:48;;;;;;;7.77;3.50;;;;;;;7.12;100.00;103211.34;5012842;28;20535;-68
2023/02/13 06:49:14;;;;;;;10.50;4.20;;;;;;;7.08;100.00;103219.00;5013034;28;20495;-68
2023/02/13 06:51:41;;;;;;;10.40;3.57;;;;;;;7.07;100.00;103225.44;5013101;28;20440;-68
2023/02/13 06:54:07;;;;;;;13.07;4.07;;;;;;;7.10;100.00;103218.81;5013003;28;20456;-68
2023/02/13 06:56:34;;;;;;;9.67;3.27;;;;;;;7.09;100.00;103236.84;5016175;28;20447;-68
2023/02/13 06:59:02;;;;;;;11.20;3.70;;;;;;;7.10;100.00;103230.41;5016746;28;20439;-68
2023/02/13 07:01:29;;;;;;;11.27;4.20;;;;;;;7.06;100.00;103231.88;5016678;28;20545;-69
2023/02/13 07:03:55;;;;;;;8.73;3.17;;;;;;;7.08;100.00;103240.56;5016358;28;20575;-69
2023/02/13 07:06:22;;;;;;;11.80;4.13;;;;;;;7.13;100.00;103243.47;5016292;28;20901;-68
2023/02/13 07:08:50;;;;;;;10.00;3.47;;;;;;;7.15;100.00;103244.09;5017150;28;20856;-68
2023/02/13 07:11:18;;;;;;;10.97;4.33;;;;;;;7.09;100.00;103242.25;5016291;28;20963;-69
2023/02/13 07:13:44;;;;;;;8.10;3.30;;;;;;;7.14;100.00;103242.44;5016319;28;20463;-69
2023/02/13 07:16:12;;;;;;;8.00;2.83;;;;;;;7.12;100.00;103255.28;5016333;28;20444;-68
2023/02/13 07:18:39;;;;;;;12.03;4.40;;;;;;;7.16;100.00;103245.72;5016192;28;20534;-68
2023/02/13 07:21:05;;;;;;;8.83;3.47;;;;;;;7.20;100.00;103252.34;5016318;28;20448;-68
2023/02/13 07:23:32;;;;;;;9.90;3.43;;;;;;;7.22;100.00;103250.28;5016112;28;20468;-68
2023/02/13 07:25:59;;;;;;;12.93;3.93;;;;;;;7.27;100.00;103252.34;5016005;28;20450;-68
2023/02/13 07:28:26;;;;;;;10.13;4.27;;;;;;;7.29;100.00;103248.38;5015950;28;20495;-68
2023/02/13 07:30:53;;;;;;;9.73;3.10;;;;;;;7.30;100.00;103252.75;5016168;28;20798;-68
2023/02/13 07:33:21;;;;;;;9.60;3.97;;;;;;;7.33;100.00;103257.69;5016119;28;20454;-67
2023/02/13 07:35:50;;;;;;;10.17;3.83;;;;;;;7.39;100.00;103256.00;5016097;28;20444;-70
2023/02/13 07:38:17;;;;;;;8.13;3.43;;;;;;;7.43;100.00;103253.72;5016023;28;20451;-70
2023/02/13 07:40:44;;;;;;;11.37;4.00;;;;;;;7.47;100.00;103261.16;5015949;28;20451;-69
2023/02/13 07:43:12;;;;;;;11.83;3.90;;;;;;;7.49;100.00;103258.28;5015570;28;20483;-68
2023/02/13 07:45:38;;;;;;;11.17;3.80;;;;;;;7.51;100.00;103258.88;5015568;28;20440;-69
2023/02/13 07:48:05;;;;;;;10.77;3.67;;;;;;;7.54;100.00;103264.69;5015654;28;20531;-69
2023/02/13 07:50:33;;;;;;;11.00;3.20;;;;;;;7.54;100.00;103261.97;5015819;28;20448;-68
2023/02/13 07:53:02;;;;;;;11.30;4.37;;;;;;;7.54;100.00;103258.47;5015750;28;20483;-69
2023/02/13 07:55:29;;;;;;;15.70;4.10;;;;;;;7.57;100.00;103261.56;5015575;28;20463;-68
2023/02/13 07:57:56;;;;;;;9.13;3.87;;;;;;;7.59;100.00;103255.94;5015852;28;20539;-68
2023/02/13 08:00:23;;;;;;;8.67;3.13;;;;;;;7.66;100.00;103267.53;5015290;28;20440;-68
2023/02/13 08:02:50;;;;;;;13.10;4.03;;;;;;;7.69;100.00;103259.00;5015338;28;20454;-68
2023/02/13 08:05:16;;;;;;;10.80;4.20;;;;;;;7.69;100.00;103253.59;5014775;28;20479;-68
2023/02/13 08:07:44;;;;;;;11.07;3.70;;;;;;;7.71;100.00;103256.09;5015479;28;20898;-68
2023/02/13 08:12:57;;;;;;;8.87;2.90;;;;;;;7.70;100.00;103263.38;5015165;28;20411;-68
2023/02/13 08:15:24;;;;;;;11.40;3.97;;;;;;;7.74;100.00;103269.97;5015224;28;20474;-68
2023/02/13 08:17:51;;;;;;;13.40;5.20;;;;;;;7.74;100.00;103266.44;5015255;28;20448;-68
2023/02/13 08:20:18;;;;;;;13.47;4.40;;;;;;;7.73;100.00;103270.19;5014776;28;20498;-68
2023/02/13 08:22:46;;;;;;;11.63;3.90;;;;;;;7.76;100.00;103265.19;5015166;28;20448;-68
2023/02/13 08:25:13;;;;;;;11.23;4.33;;;;;;;7.79;100.00;103269.31;5015079;28;20548;-68
2023/02/13 08:27:39;;;;;;;12.37;3.70;;;;;;;7.72;100.00;103260.44;5015022;28;20440;-68
2023/02/13 08:30:07;;;;;;;10.30;3.57;;;;;;;7.76;100.00;103259.78;5014961;28;20575;-67
2023/02/13 08:32:34;;;;;;;10.97;3.63;;;;;;;7.72;100.00;103269.38;5014922;28;20450;-68
2023/02/13 08:35:01;;;;;;;10.30;3.53;;;;;;;7.74;100.00;103272.66;5014420;28;20996;-68
2023/02/13 08:37:27;;;;;;;10.17;3.33;;;;;;;7.81;100.00;103259.97;5014962;28;20472;-68
2023/02/13 08:39:55;;;;;;;12.70;3.97;;;;;;;7.89;100.00;103258.06;5014883;28;20512;-66
2023/02/13 08:42:22;;;;;;;11.17;4.10;;;;;;;7.91;100.00;103258.69;5014880;28;20455;-68
2023/02/13 08:44:49;;;;;;;9.90;2.97;;;;;;;7.93;100.00;103268.22;5014352;28;21028;-69
2023/02/13 08:47:15;;;;;;;12.67;4.27;;;;;;;7.92;100.00;103265.72;5014730;28;20481;-68
2023/02/13 08:49:42;;;;;;;9.30;4.43;;;;;;;7.92;100.00;103265.72;5014645;28;20479;-68
2023/02/13 08:52:08;;;;;;;13.50;4.33;;;;;;;7.93;100.00;103268.22;5014674;28;20444;-68
2023/02/13 08:54:35;;;;;;;11.40;4.13;;;;;;;7.97;100.00;103269.44;5014575;28;20506;-68
2023/02/13 08:57:04;;;;;;;9.63;3.97;;;;;;;8.02;100.00;103266.91;5014546;28;20452;-68
2023/02/13 08:59:30;;;;;;;9.47;3.47;;;;;;;8.05;100.00;103276.44;5014598;28;20532;-67
2023/02/13 09:01:57;;;;;;;11.43;4.63;;;;;;;8.06;100.00;103268.13;5014513;28;20451;-68
2023/02/13 09:04:24;;;;;;;13.27;3.87;;;;;;;8.00;100.00;103274.38;5014342;28;20510;-68
2023/02/13 09:06:50;;;;;;;11.20;4.33;;;;;;;7.97;100.00;103268.59;5014470;28;20804;-68
2023/02/13 09:09:17;;;;;;;10.37;3.10;;;;;;;7.99;100.00;103280.00;5014362;28;20522;-68
2023/02/13 09:11:44;;;;;;;10.93;4.43;;;;;;;7.97;100.00;103274.84;5014422;28;20447;-68
2023/02/13 09:14:11;;;;;;;10.67;3.70;;;;;;;7.91;100.00;103278.38;5014267;28;20464;-68
2023/02/13 09:16:38;;;;;;;10.57;3.97;;;;;;;7.81;100.00;103276.16;5014187;28;20455;-68
2023/02/13 09:19:05;;;;;;;9.40;3.90;;;;;;;7.82;100.00;103274.28;5013550;28;20466;-68
2023/02/13 09:21:31;;;;;;;9.17;4.23;;;;;;;7.80;100.00;103273.69;5014126;28;20822;-68
2023/02/13 09:23:58;;;;;;;11.67;4.27;;;;;;;7.78;100.00;103276.59;5013652;28;21008;-67
2023/02/13 09:26:24;;;;;;;14.53;4.63;;;;;;;7.77;100.00;103282.22;5014090;28;20534;-68
2023/02/13 09:28:51;;;;;;;9.57;2.73;;;;;;;7.73;100.00;103281.81;5013568;28;20451;-68
2023/02/13 09:31:22;;;;;;;12.43;5.03;;;;;;;7.72;100.00;103282.84;5013963;28;20439;-68
2023/02/13 09:33:49;;;;;;;10.97;3.90;;;;;;;7.68;100.00;103281.63;5013385;28;20543;-68
2023/02/13 09:36:19;;;;;;;11.30;4.20;;;;;;;7.70;100.00;103289.50;5013757;28;20444;-67
2023/02/13 09:38:46;;;;;;;12.83;4.40;;;;;;;7.68;100.00;103291.59;5013841;28;20532;-67
2023/02/13 09:41:17;;;;;;;11.80;4.33;;;;;;;7.74;100.00;103288.84;5013821;28;20441;-67
2023/02/13 09:43:48;;;;;;;10.53;4.40;;;;;;;7.79;100.00;103282.81;5013406;28;20841;-67
2023/02/13 09:46:20;;;;;;;11.10;3.90;;;;;;;7.86;100.00;103293.56;5013738;28;20424;-67
2023/02/13 09:48:50;;;;;;;10.70;3.97;;;;;;;7.98;100.00;103305.34;5013361;28;20452;-67
2023/02/13 09:51:19;;;;;;;17.30;5.20;;;;;;;7.99;100.00;103288.09;5013393;28;20460;-67
2023/02/13 09:53:54;;;;;;;10.87;5.10;;;;;;;7.94;100.00;103288.75;5013274;28;20464;-67
2023/02/13 09:56:29;;;;;;;16.17;5.20;;;;;;;7.93;100.00;103279.00;5013354;28;20911;-67
2023/02/13 09:59:01;;;;;;;11.57;4.10;;;;;;;7.95;100.00;103279.63;5013612;28;20808;-67
2023/02/13 10:01:32;;;;;;;11.00;4.00;;;;;;;7.96;100.00;103289.34;5013567;28;20421;-67
2023/02/13 10:04:20;;;;;;;14.83;4.63;;;;;;;7.93;100.00;103294.38;5013078;28;20475;-67
2023/02/13 10:06:53;;;;;;;11.57;4.70;;;;;;;7.96;100.00;103291.22;5013181;28;20912;-67
2023/02/13 10:09:27;;;;;;;22.30;5.87;;;;;;;7.95;100.00;103292.28;5013465;28;20490;-67
2023/02/13 10:12:11;;;;;;;11.27;4.67;;;;;;;8.02;100.00;103279.59;5013408;28;20902;-67
2023/02/13 10:14:48;;;;;;;13.67;5.00;;;;;;;8.06;100.00;103286.22;5013155;28;20555;-67
2023/02/13 10:17:20;;;;;;;17.30;4.40;;;;;;;8.06;100.00;103287.03;5013153;28;20511;-67
2023/02/13 10:19:50;;;;;;;16.10;4.70;;;;;;;8.09;100.00;103291.16;5013049;28;20796;-67
2023/02/13 10:22:20;;;;;;;9.07;3.43;;;;;;;8.14;100.00;103285.91;5013393;28;20439;-67
2023/02/13 10:24:51;;;;;;;9.70;4.50;;;;;;;8.13;100.00;103288.84;5013234;28;20464;-66
2023/02/13 10:27:23;;;;;;;14.50;4.60;;;;;;;8.18;100.00;103284.44;5013345;28;20427;-67
2023/02/13 10:30:05;;;;;;;12.30;4.60;;;;;;;8.11;100.00;103286.38;5015732;28;20464;-70
2023/02/13 10:32:42;;;;;;;12.03;4.53;;;;;;;8.15;100.00;103282.19;5017332;28;20523;-67
2023/02/13 10:35:19;;;;;;;16.37;5.43;;;;;;;8.20;100.00;103279.66;5017159;28;20486;-67
2023/02/13 10:37:49;;;;;;;15.70;5.30;;;;;;;8.15;100.00;103274.09;5017257;28;20442;-67
2023/02/13 10:40:17;;;;;;;14.03;5.57;;;;;;;8.13;100.00;103280.75;5017092;28;20433;-68
2023/02/13 10:42:46;;;;;;;18.00;6.33;;;;;;;8.16;100.00;103275.75;5017110;28;20976;-67
2023/02/13 10:45:32;;;;;;;12.93;4.83;;;;;;;8.20;100.00;103274.28;5016948;28;20459;-67
2023/02/13 10:48:12;;;;;;;18.03;5.40;;;;;;;8.22;100.00;103274.03;5016700;28;20912;-67
2023/02/13 10:50:48;;;;;;;14.97;5.43;;;;;;;8.25;100.00;103271.72;5017114;28;20558;-67
2023/02/13 10:53:21;;;;;;;18.23;5.23;;;;;;;8.21;100.00;103262.41;5016872;28;20436;-68
2023/02/13 10:56:16;;;;;;;14.27;4.70;;;;;;;8.28;100.00;103262.38;5016865;28;20490;-67
2023/02/13 10:59:04;;;;;;;12.73;5.63;;;;;;;8.34;100.00;103269.59;5016492;28;20554;-68
2023/02/13 11:01:39;;;;;;;15.73;5.47;;;;;;;8.32;100.00;103260.88;5016779;28;20487;-67
2023/02/13 11:04:10;;;;;;;15.07;5.13;;;;;;;8.31;100.00;103262.75;5016450;28;20521;-68
2023/02/13 11:06:41;;;;;;;17.10;6.43;;;;;;;8.32;100.00;103260.88;5016685;28;20512;-68
2023/02/13 11:09:12;;;;;;;15.03;5.80;;;;;;;8.32;100.00;103259.03;5016548;28;20492;-68
2023/02/13 11:11:41;;;;;;;17.37;6.00;;;;;;;8.32;100.00;103256.31;5016299;28;20436;-68
2023/02/13 11:14:10;;;;;;;15.87;6.20;;;;;;;8.37;100.00;103257.53;5016671;28;20452;-68
2023/02/13 11:16:43;;;;;;;14.87;5.87;;;;;;;8.36;100.00;103267.50;5016042;28;20452;-68
2023/02/13 11:19:18;;;;;;;11.80;5.47;;;;;;;8.25;100.00;103254.72;5016366;28;20454;-68
2023/02/13 11:21:46;;;;;;;20.53;6.60;;;;;;;8.22;100.00;103255.97;5016401;28;20432;-68
2023/02/13 11:24:21;;;;;;;19.70;7.00;;;;;;;8.21;100.00;103256.19;5016273;28;20896;-68
2023/02/13 11:26:53;;;;;;;17.47;7.17;;;;;;;8.23;100.00;103244.13;5016204;28;20441;-67
2023/02/13 11:29:24;;;;;;;12.60;5.30;;;;;;;8.25;100.00;103244.75;5016113;28;20436;-67
2023/02/13 11:32:06;;;;;;;13.90;5.93;;;;;;;8.29;100.00;103253.22;5016190;28;20468;-68
2023/02/13 11:34:34;;;;;;;20.47;7.03;;;;;;;8.31;100.00;103249.25;5016126;28;20564;-67
2023/02/13 11:37:15;;;;;;;14.57;5.70;;;;;;;8.34;100.00;103250.69;5015756;28;20941;-67
2023/02/13 11:39:43;;;;;;;19.80;7.40;;;;;;;8.20;100.00;103233.78;5016096;28;20478;-68
2023/02/13 11:42:14;;;;;;;17.70;7.30;;;;;;;8.24;100.00;103234.16;5015344;28;20444;-68
2023/02/13 11:44:42;;;;;;;16.97;7.37;;;;;;;8.32;100.00;103236.56;5015586;28;20550;-68
2023/02/13 11:47:09;;;;;;;17.93;6.70;;;;;;;8.37;100.00;103234.09;5015623;28;20436;-68
2023/02/13 11:49:38;;;;;;;19.13;7.07;;;;;;;8.41;100.00;103231.75;5015749;28;20479;-68
2023/02/13 11:52:07;;;;;;;17.10;6.80;;;;;;;8.45;100.00;103224.88;5015806;28;20468;-68
2023/02/13 11:54:36;;;;;;;21.50;7.50;;;;;;;8.49;100.00;103235.00;5015957;28;20464;-67
2023/02/13 11:57:04;;;;;;;21.40;8.30;;;;;;;8.44;100.00;103231.31;5015969;28;20862;-68
2023/02/13 11:59:33;;;;;;;15.57;7.90;;;;;;;8.50;100.00;103227.72;5015676;28;20527;-67
2023/02/13 12:02:13;;;;;;;18.20;7.23;;;;;;;8.56;100.00;103224.16;5015559;28;20451;-68
2023/02/13 12:04:41;;;;;;;13.90;5.97;;;;;;;8.61;100.00;103220.78;5015148;28;20503;-68
2023/02/13 12:07:15;;;;;;;19.43;7.37;;;;;;;8.67;100.00;103215.28;5015638;28;20494;-67
2023/02/13 12:09:44;;;;;;;18.37;6.50;;;;;;;8.68;100.00;103214.28;5015482;28;20796;-68
2023/02/13 12:12:18;;;;;;;16.63;7.27;;;;;;;8.73;100.00;103222.53;5015748;28;20444;-68
2023/02/13 12:14:46;;;;;;;17.50;6.83;;;;;;;8.79;100.00;103221.63;5015601;28;20464;-67
2023/02/13 12:17:16;;;;;;;15.40;6.90;;;;;;;8.80;100.00;103228.69;5015363;28;20439;-68